Time;durP1;ratioP1;P1;durP2;ratioP2;P2;SDS_P1;SDS_P2;PMS_P1;PMS_P2;Temp;Humidity;BMP_temperature;BMP_pressure;BME280_temperature;BME280_humidity;BME280_pressure;Samples;Min_cycle;Max_cycle;Signal;HPM_P1;HPM_P2
2022/04/17 00:00:28;;;;;;;;;;;;;;;20.73;42.67;102874.13;5009899;28;4271;-59
2022/04/17 00:02:54;;;;;;;;;;;;;;;20.73;42.61;102862.59;5011378;28;4251;-59
2022/04/17 00:05:21;;;;;;;;;;;;;;;20.72;42.67;102861.84;5008585;28;4226;-59
2022/04/17 00:07:47;;;;;;;;;;;;;;;20.70;42.84;102861.69;5017007;28;5323;-59
2022/04/17 00:10:14;;;;;;;;;;;;;;;20.69;42.91;102868.81;4999943;28;4213;-59
2022/04/17 00:12:40;;;;;;;;;;;;;;;20.68;42.86;102858.66;5010810;28;4231;-59
2022/04/17 00:15:07;;;;;;;;;;;;;;;20.71;42.85;102866.84;5011258;28;4227;-59
2022/04/17 00:17:34;;;;;;;;;;;;;;;20.68;42.84;102862.31;5014766;28;4071;-58
2022/04/17 00:20:00;;;;;;;;;;;;;;;20.72;42.81;102861.84;5008355;28;5420;-58
2022/04/17 00:22:27;;;;;;;;;;;;;;;20.72;42.93;102856.09;4996046;28;4175;-59
2022/04/17 00:24:53;;;;;;;;;;;;;;;20.68;42.90;102853.66;5011999;28;4262;-59
2022/04/17 00:27:19;;;;;;;;;;;;;;;20.71;42.89;102866.09;5014365;28;5536;-59
2022/04/17 00:29:46;;;;;;;;;;;;;;;20.68;42.86;102861.53;4996905;28;4201;-59
2022/04/17 00:32:12;;;;;;;;;;;;;;;20.70;42.84;102859.56;5012425;28;4408;-59
2022/04/17 00:34:39;;;;;;;;;;;;;;;20.72;42.84;102861.84;5010780;28;4004;-59
2022/04/17 00:37:05;;;;;;;;;;;;;;;20.70;42.80;102864.56;5013790;28;4076;-60
2022/04/17 00:39:31;;;;;;;;;;;;;;;20.72;42.86;102858.97;5011074;28;5373;-59
2022/04/17 00:42:00;;;;;;;;;;;;;;;20.71;42.87;102860.34;5011256;28;6312;-59
2022/04/17 00:44:27;;;;;;;;;;;;;;;20.72;42.82;102856.09;5012381;28;4194;-59
2022/04/17 00:46:53;;;;;;;;;;;;;;;20.72;42.81;102844.56;5011485;28;5366;-59
2022/04/17 00:49:20;;;;;;;;;;;;;;;20.69;42.97;102840.03;5009436;28;5236;-59
2022/04/17 00:51:46;;;;;;;;;;;;;;;20.69;42.95;102834.28;5010794;28;4302;-59
2022/04/17 00:54:13;;;;;;;;;;;;;;;20.71;42.85;102849.56;5013468;28;4233;-59
2022/04/17 00:56:40;;;;;;;;;;;;;;;20.74;43.04;102846.84;5012427;28;4318;-59
2022/04/17 00:59:06;;;;;;;;;;;;;;;20.73;42.92;102846.09;5015251;28;4198;-59
2022/04/17 01:01:33;;;;;;;;;;;;;;;20.68;42.91;102850.78;5009508;28;5437;-59
2022/04/17 01:04:00;;;;;;;;;;;;;;;20.71;42.98;102845.94;5012732;28;4228;-59
2022/04/17 01:06:26;;;;;;;;;;;;;;;20.72;42.85;102844.56;5015366;28;5387;-59
2022/04/17 01:08:53;;;;;;;;;;;;;;;20.72;42.94;102838.81;5011585;28;4236;-59
2022/04/17 01:11:20;;;;;;;;;;;;;;;20.73;42.85;102843.22;5012427;28;5380;-59
2022/04/17 01:13:46;;;;;;;;;;;;;;;20.72;42.90;102838.81;5008285;28;4608;-59
2022/04/17 01:16:16;;;;;;;;;;;;;;;20.67;42.94;102837.75;5007713;28;4091;-59
2022/04/17 01:19:01;;;;;;;;;;;;;;;20.67;42.99;102837.00;5010098;28;4270;-60
2022/04/17 01:21:27;;;;;;;;;;;;;;;20.66;43.13;102830.47;5014531;28;4175;-59
2022/04/17 01:26:58;;;;;;;;;;;;;;;20.64;43.14;102838.22;5014328;28;4176;-59
2022/04/17 01:29:26;;;;;;;;;;;;;;;20.66;43.13;102829.69;4992464;28;4356;-59
2022/04/17 01:31:53;;;;;;;;;;;;;;;20.67;43.08;102834.88;5010865;28;4170;-59
2022/04/17 01:34:20;;;;;;;;;;;;;;;20.66;43.08;102830.47;5013854;28;4223;-59
2022/04/17 01:36:46;;;;;;;;;;;;;;;20.69;43.09;102834.28;5016248;28;4205;-59
2022/04/17 01:39:13;;;;;;;;;;;;;;;20.66;43.12;102830.47;5014215;28;5256;-59
2022/04/17 01:41:39;;;;;;;;;;;;;;;20.67;42.99;102837.75;5011940;28;5327;-59
2022/04/17 01:44:05;;;;;;;;;;;;;;;20.68;42.99;102829.84;5014093;28;4073;-59
2022/04/17 01:46:32;;;;;;;;;;;;;;;20.66;42.94;102839.13;5012408;28;4185;-59
2022/04/17 01:48:58;;;;;;;;;;;;;;;20.66;43.00;102839.13;5017923;28;4073;-59
2022/04/17 01:51:25;;;;;;;;;;;;;;;20.67;42.90;102832.00;5013552;28;5328;-59
2022/04/17 01:53:51;;;;;;;;;;;;;;;20.67;43.01;102837.00;5014669;28;4110;-59
2022/04/17 01:56:49;;;;;;;;;;;;;;;20.64;42.96;102833.19;5018346;28;4191;-59
2022/04/17 01:59:15;;;;;;;;;;;;;;;20.67;42.96;102828.34;5006677;28;4334;-59
2022/04/17 02:01:42;;;;;;;;;;;;;;;20.64;43.03;102824.56;5014124;28;4192;-59
2022/04/17 02:04:08;;;;;;;;;;;;;;;20.66;42.96;102818.97;5016836;28;4242;-59
2022/04/17 02:06:35;;;;;;;;;;;;;;;20.64;43.03;102820.94;5016181;28;5481;-59
2022/04/17 02:09:01;;;;;;;;;;;;;;;20.66;43.04;102813.22;5015857;28;4296;-59
2022/04/17 02:11:28;;;;;;;;;;;;;;;20.66;43.02;102818.19;5012742;28;5464;-59
2022/04/17 02:13:54;;;;;;;;;;;;;;;20.66;43.00;102821.06;5009035;28;5428;-59
2022/04/17 02:16:21;;;;;;;;;;;;;;;20.67;42.97;102820.47;5013797;28;4209;-59
2022/04/17 02:18:47;;;;;;;;;;;;;;;20.67;42.93;102826.22;5015665;28;4289;-59
2022/04/17 02:21:14;;;;;;;;;;;;;;;20.63;42.93;102817.28;5013644;28;4186;-59
2022/04/17 02:23:41;;;;;;;;;;;;;;;20.66;42.84;102812.44;5017096;28;4254;-59
2022/04/17 02:26:08;;;;;;;;;;;;;;;20.66;42.91;102812.44;5014410;28;5305;-59
2022/04/17 02:28:35;;;;;;;;;;;;;;;20.66;42.83;102821.06;5014605;28;4104;-59
2022/04/17 02:31:02;;;;;;;;;;;;;;;20.65;42.93;102810.91;5013898;28;4283;-59
2022/04/17 02:33:28;;;;;;;;;;;;;;;20.66;42.84;102815.31;5011723;28;5306;-60
2022/04/17 02:35:55;;;;;;;;;;;;;;;20.65;42.95;102819.56;5013206;28;4299;-59
2022/04/17 02:38:21;;;;;;;;;;;;;;;20.66;42.86;102816.09;5013810;28;4211;-59
2022/04/17 02:40:48;;;;;;;;;;;;;;;20.62;43.10;102817.91;5015803;28;4170;-59
2022/04/17 02:43:14;;;;;;;;;;;;;;;20.62;43.23;102815.03;5014251;28;4173;-59
2022/04/17 02:45:40;;;;;;;;;;;;;;;20.61;43.14;102817.13;5011722;28;4090;-60
2022/04/17 02:48:07;;;;;;;;;;;;;;;20.62;43.19;102812.13;5015634;28;4266;-59
2022/04/17 02:50:33;;;;;;;;;;;;;;;20.62;43.06;102823.66;5012420;28;4243;-59
2022/04/17 02:53:00;;;;;;;;;;;;;;;20.62;43.10;102815.03;5013575;28;4286;-59
2022/04/17 02:55:26;;;;;;;;;;;;;;;20.62;43.03;102820.78;5012179;28;5340;-59
2022/04/17 02:57:54;;;;;;;;;;;;;;;20.61;43.13;102816.38;5010189;28;4243;-59
2022/04/17 03:00:21;;;;;;;;;;;;;;;20.60;43.18;102820.63;5011846;28;4213;-59
2022/04/17 03:05:39;;;;;;;;;;;;;;;20.59;43.08;102821.97;5010053;28;4130;-59
2022/04/17 03:08:15;;;;;;;;;;;;;;;20.62;43.17;102815.03;5010316;28;4327;-60
2022/04/17 03:10:42;;;;;;;;;;;;;;;20.57;43.26;102805.31;5013922;28;5205;-59
2022/04/17 03:13:08;;;;;;;;;;;;;;;20.61;43.04;102811.34;5010301;28;4165;-59
2022/04/17 03:15:37;;;;;;;;;;;;;;;20.57;43.07;102802.44;5011493;28;4214;-59
2022/04/17 03:18:04;;;;;;;;;;;;;;;20.62;42.99;102801.38;5019290;28;4223;-63
2022/04/17 03:20:30;;;;;;;;;;;;;;;20.63;43.03;102796.38;5014476;28;4324;-59
2022/04/17 03:22:57;;;;;;;;;;;;;;;20.62;42.99;102794.88;5014588;28;4223;-59
2022/04/17 03:25:23;;;;;;;;;;;;;;;20.66;43.00;102789.41;5010537;28;4220;-59
2022/04/17 03:27:50;;;;;;;;;;;;;;;20.63;42.99;102782.72;5010145;28;4120;-59
2022/04/17 03:30:16;;;;;;;;;;;;;;;20.65;42.92;102787.91;5010561;28;5220;-59
2022/04/17 03:32:43;;;;;;;;;;;;;;;20.65;42.92;102779.25;5012815;28;4405;-59
2022/04/17 03:35:10;;;;;;;;;;;;;;;20.62;42.92;102786.22;5013621;28;5274;-60
2022/04/17 03:37:36;;;;;;;;;;;;;;;20.64;42.94;102775.63;5012723;28;4257;-59
2022/04/17 03:40:03;;;;;;;;;;;;;;;20.66;42.88;102777.88;5013745;28;4283;-59
2022/04/17 03:42:29;;;;;;;;;;;;;;;20.63;42.92;102762.56;5011607;28;5291;-59
2022/04/17 03:44:56;;;;;;;;;;;;;;;20.65;42.83;102764.88;5012074;28;4269;-59
2022/04/17 03:47:22;;;;;;;;;;;;;;;20.66;42.79;102757.72;5009888;28;5087;-59
2022/04/17 03:49:48;;;;;;;;;;;;;;;20.64;42.83;102763.34;5016165;28;4287;-59
2022/04/17 03:52:15;;;;;;;;;;;;;;;20.63;42.95;102767.59;5011257;28;4194;-59
2022/04/17 03:54:41;;;;;;;;;;;;;;;20.63;42.99;102761.81;5014628;28;4205;-59
2022/04/17 03:57:07;;;;;;;;;;;;;;;20.65;42.87;102759.09;5015777;28;4076;-59
2022/04/17 03:59:34;;;;;;;;;;;;;;;20.64;42.96;102764.13;5013391;28;5395;-59
2022/04/17 04:02:01;;;;;;;;;;;;;;;20.64;42.96;102757.59;5013746;28;4192;-59
2022/04/17 04:04:28;;;;;;;;;;;;;;;20.65;42.92;102756.22;5014006;28;4137;-59
2022/04/17 04:06:54;;;;;;;;;;;;;;;20.69;42.80;102747.91;5012726;28;5270;-59
2022/04/17 04:09:21;;;;;;;;;;;;;;;20.67;42.72;102756.38;5011491;28;4241;-59
2022/04/17 04:11:47;;;;;;;;;;;;;;;20.67;42.82;102747.75;5010148;28;4183;-59
2022/04/17 04:14:14;;;;;;;;;;;;;;;20.65;42.81;102747.59;5012696;28;5266;-59
2022/04/17 04:16:40;;;;;;;;;;;;;;;20.64;42.99;102751.84;5011976;28;4096;-59
2022/04/17 04:19:07;;;;;;;;;;;;;;;20.66;42.76;102752.75;5009839;28;5281;-59
2022/04/17 04:21:47;;;;;;;;;;;;;;;20.65;42.88;102747.59;5010755;28;6302;-59
2022/04/17 04:24:14;;;;;;;;;;;;;;;20.63;42.82;102745.31;5011588;28;4102;-59
2022/04/17 04:26:41;;;;;;;;;;;;;;;20.64;42.94;102751.84;5010502;28;4204;-59
2022/04/17 04:29:07;;;;;;;;;;;;;;;20.64;42.88;102758.34;5009669;28;4201;-59
2022/04/17 04:31:34;;;;;;;;;;;;;;;20.63;42.92;102756.06;5010653;28;4267;-59
2022/04/17 04:34:00;;;;;;;;;;;;;;;20.67;42.85;102762.88;5008745;28;4088;-59
2022/04/17 04:36:27;;;;;;;;;;;;;;;20.66;42.92;102772.13;5012875;28;4200;-59
2022/04/17 04:38:53;;;;;;;;;;;;;;;20.65;42.86;102759.84;5013638;28;4268;-59
2022/04/17 04:41:20;;;;;;;;;;;;;;;20.66;42.72;102760.59;5013190;28;4324;-59
2022/04/17 04:43:46;;;;;;;;;;;;;;;20.68;42.79;102769.41;5012057;28;4080;-59
2022/04/17 04:46:12;;;;;;;;;;;;;;;20.67;42.71;102765.03;5010525;28;5400;-59
2022/04/17 04:51:25;;;;;;;;;;;;;;;20.68;42.76;102766.53;5005443;28;4280;-59
2022/04/17 04:53:52;;;;;;;;;;;;;;;20.67;42.67;102779.41;4995502;28;4290;-59
2022/04/17 04:56:18;;;;;;;;;;;;;;;20.67;42.70;102773.66;5018294;28;4302;-59
2022/04/17 04:58:44;;;;;;;;;;;;;;;20.67;42.67;102785.16;5010677;28;4260;-59
2022/04/17 05:01:11;;;;;;;;;;;;;;;20.70;42.74;102789.72;5016625;28;4355;-59
2022/04/17 05:03:37;;;;;;;;;;;;;;;20.68;42.76;102783.78;5012407;28;4244;-59
2022/04/17 05:06:04;;;;;;;;;;;;;;;20.70;42.71;102781.06;5018946;28;4186;-61
2022/04/17 05:08:31;;;;;;;;;;;;;;;20.70;42.54;102787.59;5015368;28;4176;-60
2022/04/17 05:10:57;;;;;;;;;;;;;;;20.71;42.65;102789.13;5016266;28;4153;-60
2022/04/17 05:13:23;;;;;;;;;;;;;;;20.68;42.67;102781.69;5013753;28;5449;-59
2022/04/17 05:15:50;;;;;;;;;;;;;;;20.71;42.54;102794.13;5016486;28;4279;-60
2022/04/17 05:18:16;;;;;;;;;;;;;;;20.68;42.76;102780.91;5015292;28;5658;-60
2022/04/17 05:20:43;;;;;;;;;;;;;;;20.68;42.79;102783.78;5015830;28;4184;-60
2022/04/17 05:23:17;;;;;;;;;;;;;;;20.66;42.89;102783.63;5013166;28;4208;-59
2022/04/17 05:25:44;;;;;;;;;;;;;;;20.65;42.88;102793.66;5015334;28;4184;-59
2022/04/17 05:28:10;;;;;;;;;;;;;;;20.66;42.84;102784.41;5014778;28;5670;-59
2022/04/17 05:30:37;;;;;;;;;;;;;;;20.68;42.83;102786.69;5016798;28;4218;-60
2022/04/17 05:33:03;;;;;;;;;;;;;;;20.67;42.86;102785.91;5017582;28;4365;-60
2022/04/17 05:35:30;;;;;;;;;;;;;;;20.70;42.79;102783.94;5013754;28;5483;-59
2022/04/17 05:37:56;;;;;;;;;;;;;;;20.68;42.80;102784.56;5015530;28;4229;-59
2022/04/17 05:40:23;;;;;;;;;;;;;;;20.71;42.77;102791.25;5008598;28;4194;-60
2022/04/17 05:42:49;;;;;;;;;;;;;;;20.71;42.55;102782.59;4997449;28;4259;-60
2022/04/17 05:45:15;;;;;;;;;;;;;;;20.72;42.50;102781.22;5014524;28;4181;-59
2022/04/17 05:47:42;;;;;;;;;;;;;;;20.72;42.61;102781.22;5014567;28;4449;-59
2022/04/17 05:50:08;;;;;;;;;;;;;;;20.72;42.69;102772.59;5018992;28;4314;-60
2022/04/17 05:52:35;;;;;;;;;;;;;;;20.71;42.69;102774.72;5010424;28;4285;-60
2022/04/17 05:55:01;;;;;;;;;;;;;;;20.73;42.56;102782.75;5007979;28;4231;-60
2022/04/17 05:57:27;;;;;;;;;;;;;;;20.72;42.43;102778.34;5017607;28;4217;-60
2022/04/17 05:59:54;;;;;;;;;;;;;;;20.74;42.35;102775.63;5017260;28;4330;-59
2022/04/17 06:02:20;;;;;;;;;;;;;;;20.72;42.54;102786.97;5017663;28;5427;-60
2022/04/17 06:04:50;;;;;;;;;;;;;;;20.74;42.50;102775.63;5015362;28;4442;-60
2022/04/17 06:07:26;;;;;;;;;;;;;;;20.75;42.59;102787.91;5016223;28;4209;-59
2022/04/17 06:09:52;;;;;;;;;;;;;;;20.74;42.55;102780.63;5019206;28;4272;-60
2022/04/17 06:12:19;;;;;;;;;;;;;;;20.73;43.17;102777.00;5012566;28;4189;-60
2022/04/17 06:15:15;;;;;;;;;;;;;;;20.75;42.84;102790.78;5012562;28;4279;-61
2022/04/17 06:17:42;;;;;;;;;;;;;;;20.76;43.04;102787.31;5012290;28;4146;-60
2022/04/17 06:20:09;;;;;;;;;;;;;;;20.74;43.33;102795.03;5013723;28;4190;-60
2022/04/17 06:22:35;;;;;;;;;;;;;;;20.74;43.33;102795.03;5015177;28;4190;-60
2022/04/17 06:25:02;;;;;;;;;;;;;;;20.73;44.13;102787.75;5010895;28;4265;-54
2022/04/17 06:28:00;;;;;;;;;;;;;;;20.73;43.63;102787.75;5001301;28;4189;-54
2022/04/17 06:30:27;;;;;;;;;;;;;;;20.68;43.10;102793.22;4993616;28;4005;-58
2022/04/17 06:32:53;;;;;;;;;;;;;;;20.74;43.10;102784.25;5013316;28;4576;-53
2022/04/17 06:35:19;;;;;;;;;;;;;;;20.78;43.92;102784.56;5010493;28;5290;-51
2022/04/17 06:37:46;;;;;;;;;;;;;;;20.85;43.96;102780.03;5014440;28;4506;-56
2022/04/17 06:40:18;;;;;;;;;;;;;;;20.87;44.61;102785.94;5011099;28;4185;-53
2022/04/17 06:42:45;;;;;;;;;;;;;;;20.86;44.94;102785.16;5014284;28;4577;-53
2022/04/17 06:45:11;;;;;;;;;;;;;;;20.92;44.43;102779.13;5009819;28;4189;-53
2022/04/17 06:47:38;;;;;;;;;;;;;;;20.90;44.38;102773.97;5005471;28;4269;-53
2022/04/17 06:50:05;;;;;;;;;;;;;;;20.91;44.35;102775.50;5009728;28;4155;-59
2022/04/17 06:52:31;;;;;;;;;;;;;;;20.90;43.19;102773.97;5016730;28;4217;-51
2022/04/17 06:54:58;;;;;;;;;;;;;;;20.89;42.66;102781.09;5008687;28;4009;-52
2022/04/17 06:57:28;;;;;;;;;;;;;;;20.82;42.29;102779.13;5011326;28;5273;-50
2022/04/17 06:59:54;;;;;;;;;;;;;;;20.87;42.40;102778.06;5009172;28;4366;-49
2022/04/17 07:02:20;;;;;;;;;;;;;;;20.92;42.51;102764.72;5011637;28;4197;-47
2022/04/17 07:04:47;;;;;;;;;;;;;;;20.96;42.31;102764.25;5011016;28;4256;-48
2022/04/17 07:07:16;;;;;;;;;;;;;;;20.97;42.43;102765.78;5011585;28;4187;-51
2022/04/17 07:09:42;;;;;;;;;;;;;;;21.01;42.28;102758.19;5015069;28;4056;-47
2022/04/17 07:12:09;;;;;;;;;;;;;;;21.01;41.85;102754.56;5009311;28;5483;-51
2022/04/17 07:14:36;;;;;;;;;;;;;;;20.99;42.13;102740.75;5015657;28;4432;-52
2022/04/17 07:17:02;;;;;;;;;;;;;;;21.01;41.98;102743.03;5013961;28;4167;-47
2022/04/17 07:19:29;;;;;;;;;;;;;;;21.00;41.65;102730.75;5013658;28;4409;-47
2022/04/17 07:21:55;;;;;;;;;;;;;;;21.03;41.74;102735.31;5013676;28;4367;-57
2022/04/17 07:24:24;;;;;;;;;;;;;;;20.53;34.49;102738.00;5012976;28;4181;-50
2022/04/17 07:26:53;;;;;;;;;;;;;;;20.53;35.59;102729.38;5012592;28;5311;-49
2022/04/17 07:29:23;;;;;;;;;;;;;;;20.73;38.07;102725.19;5010104;28;4236;-51
2022/04/17 07:31:50;;;;;;;;;;;;;;;20.80;38.63;102718.50;5009273;28;4164;-48
2022/04/17 07:34:17;;;;;;;;;;;;;;;20.85;39.01;102717.44;5011242;28;4471;-48
2022/04/17 07:36:43;;;;;;;;;;;;;;;20.87;39.44;102720.47;5016964;28;4262;-47
2022/04/17 07:39:09;;;;;;;;;;;;;;;20.91;39.40;102717.09;5007128;28;4305;-51
2022/04/17 07:41:36;;;;;;;;;;;;;;;20.95;39.40;102722.44;5010566;28;4094;-50
2022/04/17 07:44:03;;;;;;;;;;;;;;;20.95;39.32;102716.66;5009839;28;4160;-48
2022/04/17 07:46:30;;;;;;;;;;;;;;;20.97;39.33;102726.22;5010832;28;5241;-48
2022/04/17 07:48:57;;;;;;;;;;;;;;;20.98;39.53;102715.44;5012587;28;4440;-48
2022/04/17 07:51:23;;;;;;;;;;;;;;;20.97;38.94;102708.94;5010531;28;4401;-53
2022/04/17 07:53:50;;;;;;;;;;;;;;;20.91;38.93;102717.09;5010041;28;4073;-48
2022/04/17 07:56:16;;;;;;;;;;;;;;;20.93;39.21;102720.91;5012855;28;4216;-47
2022/04/17 07:58:42;;;;;;;;;;;;;;;20.87;38.18;102723.34;4993814;28;4143;-51
2022/04/17 08:01:14;;;;;;;;;;;;;;;20.82;35.64;102727.28;5008469;28;4041;-55
2022/04/17 08:06:07;;;;;;;;;;;;;;;20.07;31.29;102723.09;5008752;28;4247;-55
2022/04/17 08:08:33;;;;;;;;;;;;;;;19.76;30.63;102717.06;5009984;28;4409;-48
2022/04/17 08:11:00;;;;;;;;;;;;;;;19.95;29.94;102718.50;5009491;28;4116;-48
2022/04/17 08:13:26;;;;;;;;;;;;;;;20.21;32.12;102720.56;5009907;28;4223;-60
2022/04/17 08:15:53;;;;;;;;;;;;;;;20.34;33.60;102716.50;5003804;28;4235;-50
2022/04/17 08:18:19;;;;;;;;;;;;;;;20.39;33.99;102715.44;5008342;28;4236;-53
2022/04/17 08:20:45;;;;;;;;;;;;;;;20.42;33.75;102702.69;5010643;28;4090;-54
2022/04/17 08:23:12;;;;;;;;;;;;;;;20.51;34.81;102707.69;5009095;28;5304;-58
2022/04/17 08:25:38;;;;;;;;;;;;;;;20.57;35.32;102706.66;5006802;28;4203;-52
2022/04/17 08:28:05;;;;;;;;;;;;;;;20.33;31.38;102694.81;5008477;28;4233;-57
2022/04/17 08:30:32;;;;;;;;;;;;;;;19.75;30.31;102700.44;5006244;28;4206;-56
2022/04/17 08:32:59;;;;;;;;;;;;;;;18.91;29.76;102691.66;5011181;28;4051;-55
2022/04/17 08:35:25;;;;;;;;;;;;;;;19.24;29.65;102683.56;5002040;28;4131;-54
2022/04/17 08:37:52;;;;;;;;;;;;;;;19.17;29.65;102687.28;5009118;28;4267;-52
2022/04/17 08:40:19;;;;;;;;;;;;;;;19.51;29.40;102679.88;5011439;28;5239;-49
2022/04/17 08:42:45;;;;;;;;;;;;;;;19.71;29.19;102682.88;5001919;28;5427;-47
2022/04/17 08:45:12;;;;;;;;;;;;;;;19.64;29.93;102679.50;5000156;28;4246;-51
2022/04/17 08:47:39;;;;;;;;;;;;;;;19.80;32.05;102674.28;5001818;28;5641;-50
2022/04/17 08:50:06;;;;;;;;;;;;;;;19.82;30.44;102667.94;4997307;28;4199;-59
2022/04/17 08:52:33;;;;;;;;;;;;;;;19.77;30.71;102671.84;5005049;28;4233;-49
2022/04/17 08:54:59;;;;;;;;;;;;;;;19.75;30.11;102674.56;4997129;28;5628;-54
2022/04/17 08:57:27;;;;;;;;;;;;;;;19.54;30.29;102667.22;5007107;28;4176;-53
2022/04/17 08:59:53;;;;;;;;;;;;;;;19.28;30.21;102668.75;5007843;28;4403;-52
2022/04/17 09:02:19;;;;;;;;;;;;;;;19.41;30.03;102664.72;5006925;28;4107;-48
2022/04/17 09:04:46;;;;;;;;;;;;;;;19.24;31.01;102666.31;5004418;28;4251;-49
2022/04/17 09:07:12;;;;;;;;;;;;;;;19.33;30.70;102661.97;5006142;28;5493;-51
2022/04/17 09:09:52;;;;;;;;;;;;;;;19.17;29.73;102649.97;5008498;28;4378;-49
2022/04/17 09:12:18;;;;;;;;;;;;;;;19.05;29.24;102648.97;5007724;28;5180;-50
2022/04/17 09:14:45;;;;;;;;;;;;;;;19.28;29.92;102647.88;5002231;28;4206;-48
2022/04/17 09:17:11;;;;;;;;;;;;;;;19.12;29.63;102642.34;5010081;28;5364;-51
2022/04/17 09:19:37;;;;;;;;;;;;;;;19.30;30.16;102634.44;4997241;28;4159;-48
2022/04/17 09:22:05;;;;;;;;;;;;;;;19.34;29.57;102639.75;5010176;28;4607;-56
2022/04/17 09:24:34;;;;;;;;;;;;;;;18.59;29.46;102638.06;5012350;28;4360;-52
2022/04/17 09:27:00;;;;;;;;;;;;;;;18.35;29.59;102628.97;5004504;28;5451;-52
2022/04/17 09:29:30;;;;;;;;;;;;;;;18.60;29.53;102633.88;5009107;28;4557;-51
2022/04/17 09:32:00;;;;;;;;;;;;;;;18.93;29.50;102630.78;4996887;28;4157;-51
2022/04/17 09:34:27;;;;;;;;;;;;;;;19.11;30.13;102617.88;4999713;28;5236;-49
2022/04/17 09:36:57;;;;;;;;;;;;;;;19.23;30.49;102615.97;5006916;28;4277;-51
2022/04/17 09:39:29;;;;;;;;;;;;;;;19.29;30.50;102614.91;5008553;28;4624;-50
2022/04/17 09:41:59;;;;;;;;;;;;;;;19.22;29.37;102599.34;5012658;28;4232;-48
2022/04/17 09:44:38;;;;;;;;;;;;;;;19.23;29.63;102601.59;5010878;28;4312;-51
2022/04/17 09:47:05;;;;;;;;;;;;;;;19.36;30.31;102606.19;5004759;28;4191;-52
2022/04/17 09:49:31;;;;;;;;;;;;;;;19.38;30.16;102605.59;5012789;28;5354;-51
2022/04/17 09:52:07;;;;;;;;;;;;;;;19.40;30.48;102591.38;5013117;28;4289;-50
2022/04/17 09:54:33;;;;;;;;;;;;;;;19.45;30.99;102587.47;5009938;28;4169;-52
2022/04/17 09:56:59;;;;;;;;;;;;;;;19.52;31.12;102591.59;5012799;28;4263;-49
2022/04/17 09:59:26;;;;;;;;;;;;;;;19.55;31.07;102588.25;5012898;28;4360;-49
2022/04/17 10:01:53;;;;;;;;;;;;;;;19.59;31.14;102585.69;5006661;28;4248;-49
2022/04/17 10:04:20;;;;;;;;;;;;;;;19.63;31.50;102580.28;5008195;28;4304;-50
2022/04/17 10:06:47;;;;;;;;;;;;;;;19.67;31.67;102569.06;5011100;28;4364;-48
2022/04/17 10:09:13;;;;;;;;;;;;;;;19.66;31.71;102573.31;5007506;28;4530;-50
2022/04/17 10:11:40;;;;;;;;;;;;;;;19.72;31.77;102566.53;5012535;28;4273;-49
2022/04/17 10:14:06;;;;;;;;;;;;;;;19.72;31.91;102575.16;5009691;28;5305;-50
2022/04/17 10:16:33;;;;;;;;;;;;;;;19.71;31.82;102567.91;5010339;28;4079;-47
2022/04/17 10:19:00;;;;;;;;;;;;;;;19.72;31.98;102563.66;5006404;28;4377;-49
2022/04/17 10:21:28;;;;;;;;;;;;;;;19.75;32.14;102556.72;5013063;28;4237;-50
2022/04/17 10:23:56;;;;;;;;;;;;;;;19.66;31.91;102550.31;5000586;28;4068;-52
2022/04/17 10:26:23;;;;;;;;;;;;;;;19.45;30.62;102553.00;4994284;28;4189;-50
2022/04/17 10:28:50;;;;;;;;;;;;;;;19.42;30.88;102549.22;4993356;28;5271;-51
2022/04/17 10:31:20;;;;;;;;;;;;;;;19.50;31.68;102549.06;4993930;28;4085;-48
2022/04/17 10:34:06;;;;;;;;;;;;;;;19.59;32.01;102528.22;5011856;28;4078;-51
2022/04/17 10:36:51;;;;;;;;;;;;;;;19.77;32.17;102528.09;5012935;28;6736;-55
2022/04/17 10:39:22;;;;;;;;;;;;;;;19.82;32.35;102533.56;5007783;28;4387;-56
2022/04/17 10:41:49;;;;;;;;;;;;;;;19.75;32.94;102533.72;4995501;28;4117;-57
2022/04/17 10:44:15;;;;;;;;;;;;;;;19.77;33.37;102531.75;5008605;28;4394;-53
2022/04/17 10:46:44;;;;;;;;;;;;;;;19.79;32.98;102534.00;5009509;28;4194;-54
2022/04/17 10:49:11;;;;;;;;;;;;;;;19.78;33.17;102521.75;5007731;28;4571;-56
2022/04/17 10:51:38;;;;;;;;;;;;;;;19.83;32.50;102534.31;5006373;28;4261;-52
2022/04/17 10:54:06;;;;;;;;;;;;;;;19.75;30.58;102539.47;5012564;28;4177;-55
2022/04/17 10:56:36;;;;;;;;;;;;;;;19.58;30.02;102526.69;5005155;28;4082;-50
2022/04/17 10:59:05;;;;;;;;;;;;;;;19.72;29.41;102529.91;5012076;28;4249;-57
2022/04/17 11:01:41;;;;;;;;;;;;;;;19.44;28.97;102534.97;5007368;28;4184;-59
2022/04/17 11:04:23;;;;;;;;;;;;;;;19.54;30.79;102525.63;5009154;28;4243;-59
2022/04/17 11:07:04;;;;;;;;;;;;;;;19.39;31.26;102520.94;5011851;28;3971;-58
2022/04/17 11:09:31;;;;;;;;;;;;;;;19.53;30.67;102524.88;5009734;28;4178;-58
2022/04/17 11:12:07;;;;;;;;;;;;;;;19.59;30.43;102519.59;4993486;28;4204;-60
2022/04/17 11:14:33;;;;;;;;;;;;;;;19.57;29.71;102525.19;5015219;28;4223;-60
2022/04/17 11:17:00;;;;;;;;;;;;;;;19.52;31.10;102516.88;5008392;28;4162;-59
2022/04/17 11:19:31;;;;;;;;;;;;;;;19.44;29.08;102511.25;5009874;28;5277;-58
2022/04/17 11:21:59;;;;;;;;;;;;;;;19.49;28.48;102512.31;5013814;28;5370;-59
2022/04/17 11:24:29;;;;;;;;;;;;;;;19.52;28.43;102517.63;5015631;28;4234;-58
2022/04/17 11:26:55;;;;;;;;;;;;;;;19.46;28.31;102509.28;5006242;28;4346;-58
2022/04/17 11:29:37;;;;;;;;;;;;;;;19.49;28.07;102495.81;5010843;28;4347;-50
2022/04/17 11:32:33;;;;;;;;;;;;;;;19.54;28.22;102497.66;5010453;28;4170;-52
2022/04/17 11:35:03;;;;;;;;;;;;;;;19.41;29.16;102483.72;4979581;28;4439;-52
2022/04/17 11:37:29;;;;;;;;;;;;;;;19.44;29.47;102488.25;5010539;28;4187;-59
2022/04/17 11:40:07;;;;;;;;;;;;;;;19.41;28.42;102473.00;5010173;28;4305;-54
2022/04/17 11:42:40;;;;;;;;;;;;;;;19.31;27.96;102469.34;5009738;28;4232;-56
2022/04/17 11:45:06;;;;;;;;;;;;;;;19.32;28.11;102470.13;5012245;28;5431;-58
2022/04/17 11:47:37;;;;;;;;;;;;;;;19.33;27.73;102468.75;5007493;28;4064;-55
2022/04/17 11:50:04;;;;;;;;;;;;;;;19.24;27.61;102471.00;5009194;28;4179;-58
2022/04/17 11:52:30;;;;;;;;;;;;;;;19.27;28.02;102471.91;4999244;28;5208;-51
2022/04/17 11:54:58;;;;;;;;;;;;;;;19.35;28.15;102457.41;5008561;28;4156;-55
2022/04/17 11:57:24;;;;;;;;;;;;;;;19.31;28.71;102451.34;4997785;28;4558;-59
2022/04/17 11:59:51;;;;;;;;;;;;;;;19.34;28.56;102442.28;5010397;28;4225;-56
2022/04/17 12:02:18;;;;;;;;;;;;;;;19.36;28.48;102442.44;5008224;28;4095;-56
2022/04/17 12:04:45;;;;;;;;;;;;;;;19.32;28.31;102435.63;5008956;28;4261;-55
2022/04/17 12:07:12;;;;;;;;;;;;;;;19.24;27.77;102430.81;5011170;28;4324;-55
2022/04/17 12:09:39;;;;;;;;;;;;;;;19.28;28.05;102433.22;5003490;28;4172;-57
2022/04/17 12:12:25;;;;;;;;;;;;;;;19.28;28.17;102429.59;5000095;28;4566;-57
2022/04/17 12:14:52;;;;;;;;;;;;;;;19.29;28.64;102419.59;5006547;28;4364;-54
2022/04/17 12:17:20;;;;;;;;;;;;;;;19.32;28.33;102412.66;5007145;28;4036;-56
2022/04/17 12:19:52;;;;;;;;;;;;;;;19.30;28.28;102406.75;5004193;28;4190;-55
2022/04/17 12:22:18;;;;;;;;;;;;;;;19.33;28.44;102397.69;5004111;28;5317;-55
2022/04/17 12:24:45;;;;;;;;;;;;;;;19.38;28.82;102398.75;5008629;28;4710;-58
2022/04/17 12:27:13;;;;;;;;;;;;;;;19.35;29.22;102394.97;5011940;28;4791;-58
2022/04/17 12:29:40;;;;;;;;;;;;;;;19.34;28.82;102398.47;4993013;28;4340;-57
2022/04/17 12:32:14;;;;;;;;;;;;;;;19.21;28.80;102397.53;5009740;28;4693;-58
2022/04/17 12:34:45;;;;;;;;;;;;;;;19.20;28.54;102384.53;5006279;28;4069;-58
2022/04/17 12:37:21;;;;;;;;;;;;;;;19.10;28.56;102380.88;4998674;28;4188;-54
2022/04/17 12:39:50;;;;;;;;;;;;;;;19.11;28.39;102382.41;5006060;28;4130;-57
2022/04/17 12:42:17;;;;;;;;;;;;;;;19.02;28.22;102381.03;5008492;28;4125;-55
2022/04/17 12:44:44;;;;;;;;;;;;;;;18.93;28.35;102378.16;5008906;28;4256;-53
2022/04/17 12:47:11;;;;;;;;;;;;;;;18.97;28.53;102372.72;5005523;28;4194;-53
2022/04/17 12:49:38;;;;;;;;;;;;;;;19.19;28.98;102365.78;5004542;28;4195;-54
2022/04/17 12:52:05;;;;;;;;;;;;;;;19.36;29.09;102361.25;5003641;28;4106;-56
2022/04/17 12:54:31;;;;;;;;;;;;;;;19.49;28.96;102366.53;5009963;28;4634;-56
2022/04/17 12:57:08;;;;;;;;;;;;;;;19.57;29.01;102364.25;5007304;28;4318;-57
2022/04/17 12:59:47;;;;;;;;;;;;;;;19.64;29.45;102348.22;5009917;28;4191;-58
2022/04/17 13:02:14;;;;;;;;;;;;;;;19.70;29.81;102350.81;5001085;28;4299;-59